Time;durP1;ratioP1;P1;durP2;ratioP2;P2;SDS_P1;SDS_P2;PMS_P1;PMS_P2;Temp;Humidity;BMP_temperature;BMP_pressure;BME280_temperature;BME280_humidity;BME280_pressure;Samples;Min_cycle;Max_cycle;Signal;HPM_P1;HPM_P2
2022/12/19 00:01:30;;;;;;;44.10;22.07;;;0.90;85.10;;;1.38;55.43;99681.34;4968496;28;124572;-78
2022/12/19 00:04:01;;;;;;;41.40;18.20;;;1.10;85.40;;;1.30;55.08;99686.06;4965576;28;123740;-78
2022/12/19 00:06:29;;;;;;;42.67;19.53;;;0.80;85.30;;;1.30;55.54;99702.38;4968309;28;110083;-78
2022/12/19 00:08:59;;;;;;;41.60;18.83;;;0.80;85.30;;;1.37;55.68;99706.91;4968208;28;109373;-78
2022/12/19 00:11:27;;;;;;;38.43;18.43;;;0.90;85.40;;;1.42;55.23;99704.31;4972642;28;123139;-77
2022/12/19 00:13:53;;;;;;;38.23;17.53;;;0.90;85.40;;;1.46;55.33;99700.09;4970007;28;123913;-78
2022/12/19 00:16:23;;;;;;;39.47;19.37;;;1.00;85.60;;;1.49;55.41;99713.25;4975638;28;109167;-78
2022/12/19 00:18:52;;;;;;;42.47;21.13;;;1.00;85.60;;;1.49;55.38;99699.63;4969484;28;110069;-77
2022/12/19 00:21:24;;;;;;;46.57;21.03;;;2.00;86.40;;;1.48;55.63;99692.53;4970608;28;124007;-78
2022/12/19 00:23:52;;;;;;;39.90;19.20;;;1.00;85.60;;;1.45;55.50;99692.97;4974702;28;123808;-78
2022/12/19 00:26:21;;;;;;;42.20;20.40;;;0.90;85.50;;;1.44;55.61;99691.31;4972359;28;108593;-78
2022/12/19 00:28:58;;;;;;;43.27;21.20;;;0.90;85.50;;;1.44;55.25;99688.59;4976800;28;109542;-78
2022/12/19 00:31:47;;;;;;;43.20;19.60;;;0.90;85.60;;;1.41;55.37;99691.78;4973188;28;123987;-78
2022/12/19 00:34:15;;;;;;;51.23;22.20;;;0.90;85.70;;;1.28;55.68;99688.16;4975749;28;124154;-80
2022/12/19 00:36:42;;;;;;;43.50;18.90;;;0.80;85.80;;;1.24;56.26;99684.25;4976992;28;109687;-78
2022/12/19 00:39:10;;;;;;;42.87;21.00;;;0.80;86.10;;;1.22;55.97;99680.94;4975460;28;109976;-78
2022/12/19 00:41:39;;;;;;;50.00;22.30;;;0.70;86.20;;;1.19;55.87;99677.84;4978610;28;123177;-78
2022/12/19 00:44:10;;;;;;;38.00;18.23;;;0.70;86.20;;;1.15;55.85;99666.56;4974006;28;123904;-78
2022/12/19 00:46:37;;;;;;;44.10;20.43;;;0.60;86.10;;;1.18;56.56;99665.28;4981125;28;108783;-78
2022/12/19 00:49:04;;;;;;;49.00;20.63;;;0.70;86.30;;;1.17;56.48;99669.91;4976880;28;108724;-78
2022/12/19 00:51:36;;;;;;;38.47;18.37;;;0.70;86.20;;;1.23;56.69;99668.16;4978489;28;123757;-78
2022/12/19 00:54:04;;;;;;;42.00;20.93;;;0.70;86.30;;;1.25;56.60;99658.69;4981360;28;124108;-77
2022/12/19 00:56:34;;;;;;;37.73;18.50;;;0.70;86.40;;;1.30;55.82;99656.09;4978492;28;109156;-77
2022/12/19 00:59:01;;;;;;;39.47;19.13;;;0.80;86.40;;;1.30;55.98;99647.94;4979644;28;109267;-78
2022/12/19 01:01:32;;;;;;;34.03;16.57;;;0.80;86.50;;;1.35;56.46;99655.44;4976952;28;124276;-77
2022/12/19 01:04:00;;;;;;;33.23;17.10;;;0.80;86.40;;;1.40;56.03;99641.09;4980003;28;123106;-78
2022/12/19 01:06:27;;;;;;;39.23;18.80;;;0.90;86.60;;;1.44;56.43;99647.75;4975646;28;109659;-76
2022/12/19 01:08:54;;;;;;;37.63;17.10;;;0.90;86.60;;;1.49;56.42;99631.56;4973729;28;109688;-77
2022/12/19 01:12:44;;;;;;;35.63;16.80;;;1.00;86.70;;;1.53;56.05;99625.41;4972884;28;123956;-77
2022/12/19 01:14:07;;;;;;;40.97;18.83;;;1.00;86.70;;;1.59;56.14;99633.72;4977144;28;123674;-79
2022/12/19 01:16:34;;;;;;;43.30;20.00;;;1.10;87.50;;;1.63;56.82;99624.84;4979595;28;108744;-79
2022/12/19 01:19:02;;;;;;;43.90;20.17;;;1.10;86.90;;;1.63;56.37;99635.72;4979941;28;109153;-79
2022/12/19 01:21:28;;;;;;;44.77;20.77;;;1.10;87.20;;;1.61;56.45;99626.94;4978695;28;122566;-78
2022/12/19 01:23:55;;;;;;;45.17;20.93;;;1.10;87.20;;;1.60;56.45;99640.81;4980273;28;123007;-78
2022/12/19 01:26:22;;;;;;;37.13;18.70;;;1.10;87.40;;;1.60;56.55;99641.63;4981160;28;109317;-78
2022/12/19 01:28:48;;;;;;;37.53;19.00;;;1.10;87.40;;;1.64;56.72;99642.00;4981261;28;109964;-79
2022/12/19 01:31:15;;;;;;;39.37;18.63;;;1.10;87.40;;;1.65;56.96;99636.31;4965389;28;122567;-78
2022/12/19 01:33:42;;;;;;;42.53;20.67;;;1.10;88.10;;;1.69;56.76;99631.22;4980075;28;122893;-79
2022/12/19 01:36:09;;;;;;;37.53;18.20;;;3.10;89.60;;;1.70;57.01;99625.56;4980202;28;109381;-79
2022/12/19 01:38:37;;;;;;;39.13;18.50;;;1.20;87.70;;;1.75;56.64;99633.88;4981121;28;110325;-79
2022/12/19 01:41:04;;;;;;;43.60;20.07;;;1.40;87.80;;;1.80;56.73;99632.31;4982660;28;122763;-78
2022/12/19 01:44:03;;;;;;;35.70;17.30;;;1.30;88.10;;;1.85;56.47;99622.38;4976059;28;123834;-78
2022/12/19 01:46:37;;;;;;;36.67;17.77;;;1.30;87.70;;;1.85;56.78;99622.38;4978188;28;109772;-78
2022/12/19 01:49:12;;;;;;;36.77;17.73;;;1.30;87.60;;;1.88;56.77;99619.19;4980646;28;109328;-78
2022/12/19 01:51:43;;;;;;;47.47;21.87;;;1.40;87.70;;;1.89;57.01;99618.13;4977655;28;124072;-78
2022/12/19 01:54:16;;;;;;;36.10;18.47;;;1.40;87.80;;;1.91;56.58;99620.63;4968892;28;123922;-78
2022/12/19 01:56:49;;;;;;;41.67;19.37;;;1.40;87.80;;;1.96;56.84;99612.56;4976286;28;108877;-78
2022/12/19 01:59:22;;;;;;;39.73;19.47;;;1.40;87.70;;;2.00;57.05;99602.84;4976156;28;110290;-78
2022/12/19 02:01:57;;;;;;;40.30;20.27;;;1.80;88.10;;;2.05;57.07;99592.06;4972581;28;124285;-78
2022/12/19 02:04:26;;;;;;;42.83;19.73;;;4.00;90.00;;;2.05;56.65;99583.91;4972940;28;124002;-78
2022/12/19 02:06:54;;;;;;;40.93;18.37;;;1.90;88.10;;;1.99;56.44;99590.31;4972276;28;109191;-78
2022/12/19 02:09:23;;;;;;;43.50;20.27;;;1.50;87.90;;;1.95;56.60;99580.94;4969133;28;109338;-78
2022/12/19 02:11:51;;;;;;;41.90;20.40;;;1.50;88.00;;;1.94;56.97;99582.00;4973486;28;123789;-78
2022/12/19 02:14:17;;;;;;;43.40;22.27;;;1.40;88.00;;;1.95;57.02;99579.03;4973613;28;124345;-78
2022/12/19 02:17:14;;;;;;;40.60;21.23;;;1.50;88.10;;;1.95;57.31;99584.47;4972369;28;109074;-78
2022/12/19 02:20:27;;;;;;;43.90;22.10;;;1.40;88.30;;;1.91;56.94;99585.22;4973961;28;109692;-78
2022/12/19 02:23:05;;;;;;;47.27;20.67;;;1.40;88.40;;;1.86;57.30;99577.72;4985257;28;123991;-77
2022/12/19 02:26:24;;;;;;;36.50;18.00;;;1.30;88.30;;;1.88;57.44;99578.34;4972839;28;124034;-78
2022/12/19 02:29:34;;;;;;;51.77;23.40;;;1.30;88.40;;;1.87;57.55;99586.72;4972980;28;109307;-78
2022/12/19 02:32:31;;;;;;;41.30;18.80;;;1.30;88.70;;;1.87;57.48;99589.44;4982120;28;109700;-78
2022/12/19 02:35:07;;;;;;;39.90;19.23;;;1.40;88.70;;;1.88;57.53;99591.97;4964236;28;124321;-78
2022/12/19 02:37:42;;;;;;;41.57;19.70;;;2.00;89.30;;;1.96;58.09;99582.56;4972665;28;123520;-78
2022/12/19 02:40:29;;;;;;;42.43;21.30;;;1.40;88.70;;;2.05;57.37;99585.78;4971382;28;109925;-78
2022/12/19 02:42:59;;;;;;;54.90;22.37;;;1.50;88.80;;;2.06;57.76;99568.38;4973547;28;109831;-78
2022/12/19 02:45:36;;;;;;;43.93;19.20;;;1.50;88.90;;;2.12;57.78;99573.72;4972378;28;123880;-77
2022/12/19 02:48:05;;;;;;;40.20;19.77;;;1.60;88.80;;;2.15;57.52;99567.78;4957459;28;123761;-78
2022/12/19 02:50:38;;;;;;;41.30;20.93;;;4.00;90.40;;;2.21;57.06;99572.25;4971916;28;111562;-77
2022/12/19 02:53:04;;;;;;;38.27;19.70;;;1.70;88.80;;;2.23;57.37;99561.13;4973350;28;109635;-77
2022/12/19 02:55:41;;;;;;;45.43;22.20;;;1.70;88.70;;;2.29;57.46;99567.53;4972257;28;123712;-78
2022/12/19 02:58:41;;;;;;;41.53;18.67;;;1.80;88.80;;;2.33;57.34;99574.13;4972573;28;124269;-77
2022/12/19 03:01:33;;;;;;;41.43;19.63;;;1.80;88.70;;;2.36;57.17;99576.38;4974231;28;107888;-77
2022/12/19 03:04:11;;;;;;;37.70;18.17;;;1.80;88.70;;;2.39;57.33;99584.94;4972752;28;110170;-77
2022/12/19 03:06:51;;;;;;;43.97;20.07;;;1.80;88.80;;;2.42;57.32;99589.09;4958856;28;123986;-77
2022/12/19 03:09:21;;;;;;;40.67;18.87;;;1.90;88.90;;;2.38;57.38;99571.53;5004642;28;123755;-77
2022/12/19 03:11:56;;;;;;;45.37;21.03;;;1.90;88.90;;;2.41;57.35;99549.22;4972561;28;108842;-77
2022/12/19 03:14:25;;;;;;;48.77;23.00;;;1.90;89.00;;;2.42;57.48;99542.72;4973212;28;109902;-77
2022/12/19 03:16:52;;;;;;;39.50;18.47;;;1.90;89.10;;;2.43;57.52;99558.00;4970362;28;123885;-78
2022/12/19 03:19:18;;;;;;;44.20;21.53;;;1.90;89.00;;;2.43;57.22;99574.38;4970448;28;123747;-77
2022/12/19 03:21:48;;;;;;;48.33;21.87;;;1.90;89.20;;;2.44;57.44;99581.47;4971878;28;109121;-77
2022/12/19 03:24:16;;;;;;;38.77;19.20;;;1.90;89.20;;;2.45;57.62;99582.31;4972433;28;110598;-77
2022/12/19 03:26:51;;;;;;;39.20;19.87;;;1.90;89.20;;;2.48;57.92;99582.66;4970640;28;124922;-77
2022/12/19 03:29:33;;;;;;;42.27;20.17;;;2.00;89.40;;;2.52;57.75;99597.47;4963170;28;124443;-77
2022/12/19 03:32:04;;;;;;;42.93;19.73;;;2.00;89.40;;;2.53;57.52;99596.41;4969256;28;110578;-78
2022/12/19 03:34:42;;;;;;;31.50;17.77;;;2.00;89.40;;;2.56;57.48;99601.38;4974348;28;109971;-78
2022/12/19 03:37:17;;;;;;;40.00;19.60;;;2.00;89.40;;;2.58;57.93;99598.41;4969937;28;123082;-77
2022/12/19 03:39:50;;;;;;;41.47;20.30;;;2.40;89.70;;;2.59;57.74;99600.91;4987637;28;124451;-77
2022/12/19 03:45:05;;;;;;;37.23;19.90;;;2.10;89.60;;;2.56;57.71;99598.66;4974929;28;110541;-77
2022/12/19 03:47:58;;;;;;;43.90;21.40;;;2.00;89.50;;;2.59;57.81;99583.72;4961828;28;124523;-77
2022/12/19 03:50:31;;;;;;;42.40;21.17;;;2.10;89.70;;;2.58;58.22;99588.34;4967322;28;124179;-77
2022/12/19 03:53:16;;;;;;;38.67;19.60;;;2.10;89.70;;;2.62;57.94;99585.94;4972079;28;108970;-78
2022/12/19 03:56:12;;;;;;;41.20;19.63;;;2.10;89.80;;;2.63;57.75;99585.72;5008262;28;109749;-78
2022/12/19 03:58:46;;;;;;;37.90;19.57;;;2.10;89.80;;;2.69;58.36;99583.06;4961643;28;123933;-77
2022/12/19 04:01:13;;;;;;;43.63;20.60;;;2.20;89.80;;;2.70;57.96;99588.28;4968794;28;123863;-78
2022/12/19 04:03:41;;;;;;;33.93;18.70;;;2.20;89.90;;;2.73;58.06;99579.63;4965830;28;108306;-77
2022/12/19 04:06:09;;;;;;;37.67;18.60;;;2.20;89.90;;;2.75;57.62;99577.50;4975099;28;109937;-77
2022/12/19 04:08:35;;;;;;;37.50;17.73;;;2.30;89.90;;;2.77;58.00;99580.81;4976117;28;123877;-78
2022/12/19 04:11:16;;;;;;;39.70;19.77;;;2.30;90.00;;;2.83;57.63;99579.00;4960576;28;124777;-78
2022/12/19 04:14:01;;;;;;;48.10;21.37;;;2.30;89.90;;;2.85;57.97;99593.25;4975144;28;109090;-77
2022/12/19 04:17:32;;;;;;;43.70;21.93;;;2.30;89.90;;;2.87;57.88;99602.84;4973831;28;109779;-78
2022/12/19 04:20:10;;;;;;;40.63;18.80;;;2.30;90.00;;;2.83;58.14;99600.84;4932297;28;124051;-78
2022/12/19 04:22:57;;;;;;;40.33;19.30;;;2.30;90.00;;;2.86;58.12;99595.72;4957416;28;123783;-77
2022/12/19 04:25:30;;;;;;;33.27;17.17;;;2.30;90.00;;;2.89;58.09;99594.41;4970653;28;110094;-78
2022/12/19 04:28:04;;;;;;;39.30;19.27;;;2.40;90.10;;;2.92;58.49;99599.38;4971419;28;109692;-78
2022/12/19 04:30:32;;;;;;;33.77;17.03;;;2.40;90.00;;;2.96;57.98;99600.56;4972441;28;122897;-78
2022/12/19 04:32:59;;;;;;;34.03;16.73;;;2.80;90.20;;;3.01;57.88;99602.53;4952327;28;123730;-78
2022/12/19 04:35:25;;;;;;;31.40;16.27;;;2.60;90.30;;;3.07;57.98;99591.50;4936271;28;108717;-78
2022/12/19 04:37:52;;;;;;;30.00;16.40;;;2.50;90.30;;;3.16;58.56;99602.03;4950815;28;110805;-78
2022/12/19 04:40:18;;;;;;;32.03;15.60;;;2.90;90.60;;;3.23;58.91;99609.00;4948197;28;124321;-78
2022/12/19 04:42:45;;;;;;;30.93;14.83;;;2.70;90.60;;;3.29;58.30;99604.47;4955633;28;123640;-80
2022/12/19 04:45:11;;;;;;;34.27;16.33;;;3.30;90.90;;;3.37;58.97;99605.97;4954738;28;108266;-78
2022/12/19 04:47:38;;;;;;;29.20;16.27;;;2.80;90.70;;;3.43;58.93;99596.78;4952513;28;109965;-77
2022/12/19 04:50:05;;;;;;;33.40;14.80;;;2.80;90.80;;;3.49;58.60;99593.06;4948583;28;123695;-78
2022/12/19 04:52:31;;;;;;;29.03;15.30;;;2.90;90.80;;;3.52;58.95;99587.94;4951429;28;123645;-78
2022/12/19 04:55:01;;;;;;;29.93;15.30;;;3.00;90.90;;;3.60;59.21;99588.59;4934947;28;108073;-78
2022/12/19 04:57:29;;;;;;;29.83;14.97;;;3.00;91.00;;;3.65;59.25;99594.16;4949475;28;110558;-78
2022/12/19 04:59:56;;;;;;;27.37;13.20;;;3.10;91.00;;;3.69;59.01;99592.59;4947989;28;124335;-78
2022/12/19 05:02:23;;;;;;;29.53;15.90;;;3.30;91.10;;;3.74;59.09;99592.69;4932043;28;123694;-77
2022/12/19 05:04:50;;;;;;;28.80;13.70;;;3.20;91.10;;;3.80;59.17;99588.13;4968591;28;108844;-77
2022/12/19 05:07:18;;;;;;;28.43;14.23;;;3.20;91.10;;;3.84;59.54;99584.66;4971070;28;109877;-77
2022/12/19 05:09:44;;;;;;;28.60;13.90;;;3.30;91.20;;;3.91;59.38;99579.81;4971959;28;124474;-77
2022/12/19 05:12:11;;;;;;;28.70;13.97;;;4.20;91.60;;;3.94;59.73;99573.84;4970562;28;123203;-77
2022/12/19 05:14:37;;;;;;;35.20;16.80;;;3.40;91.30;;;3.97;59.24;99567.88;4970635;28;110000;-77
2022/12/19 05:17:04;;;;;;;29.97;15.20;;;3.40;91.30;;;3.98;59.31;99575.03;4970049;28;109689;-77
2022/12/19 05:19:30;;;;;;;34.43;18.20;;;3.50;91.20;;;3.97;59.47;99567.88;4969911;28;123925;-77
2022/12/19 05:21:57;;;;;;;37.93;18.53;;;3.50;91.20;;;3.91;59.15;99568.91;4969738;28;123690;-77
2022/12/19 05:24:23;;;;;;;39.70;19.47;;;3.40;91.20;;;3.85;58.85;99567.16;4973503;28;109377;-77
2022/12/19 05:26:50;;;;;;;37.57;20.13;;;3.40;91.10;;;3.81;59.36;99563.25;4971130;28;109945;-77
2022/12/19 05:29:16;;;;;;;41.40;18.30;;;3.30;91.20;;;3.73;59.62;99566.41;4972688;28;124016;-77
2022/12/19 05:31:43;;;;;;;42.93;19.40;;;3.20;91.20;;;3.65;59.47;99564.09;4970493;28;123461;-77
2022/12/19 05:34:09;;;;;;;39.53;18.70;;;3.20;91.30;;;3.61;59.54;99566.50;4970639;28;109179;-77
2022/12/19 05:36:36;;;;;;;42.27;19.30;;;3.20;91.40;;;3.61;59.83;99566.50;4970918;28;110483;-77
2022/12/19 05:39:02;;;;;;;36.63;17.47;;;3.10;91.40;;;3.63;60.41;99571.72;4969720;28;123499;-77
2022/12/19 05:41:29;;;;;;;36.27;17.43;;;3.10;91.40;;;3.65;59.79;99572.28;4972304;28;123701;-77
2022/12/19 05:43:56;;;;;;;35.77;17.93;;;3.20;91.40;;;3.66;60.11;99568.50;4970066;28;109780;-78
2022/12/19 05:46:24;;;;;;;35.67;17.80;;;4.00;91.80;;;3.67;60.23;99562.78;4973263;28;109643;-77
2022/12/19 05:48:51;;;;;;;41.73;20.10;;;3.20;91.50;;;3.70;59.69;99567.72;4970018;28;124566;-77
2022/12/19 05:51:18;;;;;;;35.50;17.80;;;3.40;91.60;;;3.71;59.77;99574.88;4970019;28;123279;-77
2022/12/19 05:53:44;;;;;;;32.60;17.63;;;3.20;91.50;;;3.72;59.58;99573.78;4970777;28;109236;-77
2022/12/19 05:56:19;;;;;;;33.17;16.00;;;3.20;91.50;;;3.77;60.44;99564.84;4967922;28;109890;-77
2022/12/19 05:58:46;;;;;;;27.40;14.43;;;3.30;91.60;;;3.78;60.18;99569.22;4987432;28;123481;-77
2022/12/19 06:01:23;;;;;;;36.50;18.20;;;3.30;91.50;;;3.82;60.06;99559.47;4971599;28;123423;-77
2022/12/19 06:03:50;;;;;;;35.60;16.43;;;3.30;91.60;;;3.81;60.28;99552.31;4968630;28;110570;-77
2022/12/19 06:06:23;;;;;;;40.67;18.90;;;3.30;91.60;;;3.82;59.46;99545.81;4969284;28;111143;-77
2022/12/19 06:08:55;;;;;;;41.13;18.60;;;3.30;91.60;;;3.82;60.44;99554.00;4969935;28;124450;-78
2022/12/19 06:11:22;;;;;;;34.23;15.20;;;3.30;91.70;;;3.83;59.97;99546.63;4972642;28;124920;-77
2022/12/19 06:13:55;;;;;;;38.90;15.90;;;3.30;91.60;;;3.86;60.34;99548.84;4973381;28;109078;-77
2022/12/19 06:16:22;;;;;;;40.50;20.20;;;3.30;91.70;;;3.81;60.70;99549.59;4973415;28;109956;-77
2022/12/19 06:18:49;;;;;;;40.50;17.70;;;3.30;91.80;;;3.78;60.39;99547.38;4971514;28;124288;-77
2022/12/19 06:21:19;;;;;;;39.40;17.10;;;4.30;92.20;;;3.79;60.12;99543.56;4974936;28;123719;-78
2022/12/19 06:23:46;;;;;;;39.10;16.83;;;3.30;91.80;;;3.81;60.44;99543.31;4973041;28;109231;-77
2022/12/19 06:26:17;;;;;;;40.13;18.17;;;3.30;91.80;;;3.85;60.54;99542.56;4972742;28;109605;-77
2022/12/19 06:28:43;;;;;;;40.93;18.57;;;3.80;92.10;;;3.85;60.15;99553.50;4974223;28;124023;-77
2022/12/19 06:31:11;;;;;;;39.33;17.97;;;3.30;91.90;;;3.87;60.75;99547.75;4972174;28;122949;-77
2022/12/19 06:33:38;;;;;;;38.43;19.07;;;3.40;92.20;;;3.90;60.79;99550.03;4972799;28;108886;-77
2022/12/19 06:36:14;;;;;;;38.43;17.63;;;3.40;92.00;;;3.93;60.57;99544.88;4974297;28;109482;-77
2022/12/19 06:38:40;;;;;;;36.10;16.47;;;3.40;92.10;;;3.95;60.51;99548.19;4970764;28;124166;-77
2022/12/19 06:44:04;;;;;;;31.03;16.37;;;4.20;92.30;;;4.01;60.78;99532.69;4974292;28;109809;-78
2022/12/19 06:46:32;;;;;;;39.40;18.80;;;3.50;92.00;;;4.01;60.56;99542.81;4975545;28;110006;-77
2022/12/19 06:49:00;;;;;;;34.80;16.77;;;3.50;92.10;;;4.02;60.62;99536.25;4971997;28;123680;-77
2022/12/19 06:51:26;;;;;;;37.80;17.70;;;4.00;92.20;;;4.01;60.12;99531.88;4968908;28;123573;-77
2022/12/19 06:53:54;;;;;;;40.07;18.03;;;3.50;92.10;;;3.97;61.03;99542.47;4972631;28;110116;-77
2022/12/19 06:56:20;;;;;;;36.67;17.03;;;4.20;92.40;;;3.97;61.05;99540.53;4974429;28;110010;-79
2022/12/19 06:58:48;;;;;;;32.83;16.10;;;3.50;92.10;;;3.98;60.27;99536.75;4972219;28;123727;-77
2022/12/19 07:01:22;;;;;;;43.60;17.63;;;4.30;92.50;;;4.01;60.99;99540.06;4970411;28;124115;-77
2022/12/19 07:03:49;;;;;;;37.40;16.60;;;3.50;92.20;;;4.01;61.03;99537.34;4977629;28;108964;-77
2022/12/19 07:06:15;;;;;;;36.87;16.13;;;3.90;92.30;;;4.01;61.31;99551.00;4972117;28;109578;-78
2022/12/19 07:08:42;;;;;;;30.43;14.00;;;3.50;92.20;;;4.01;60.97;99545.53;4973545;28;122939;-77
2022/12/19 07:11:08;;;;;;;28.90;13.80;;;3.50;92.30;;;4.06;61.65;99537.41;4974771;28;123617;-77
2022/12/19 07:13:35;;;;;;;28.50;14.50;;;3.60;92.50;;;4.15;62.05;99535.88;4972715;28;108967;-77
2022/12/19 07:16:04;;;;;;;23.70;12.33;;;3.60;92.80;;;4.25;61.75;99532.47;4975433;28;109981;-78
2022/12/19 07:18:35;;;;;;;22.37;12.13;;;3.70;92.90;;;4.33;62.41;99530.13;4973606;28;123828;-78
2022/12/19 07:21:03;;;;;;;30.50;13.07;;;3.80;93.00;;;4.39;61.85;99541.97;4963476;28;123568;-78
2022/12/19 07:23:30;;;;;;;23.17;11.67;;;3.80;93.10;;;4.46;62.07;99533.53;4975711;28;106650;-77
2022/12/19 07:25:57;;;;;;;26.70;12.77;;;3.90;93.10;;;4.52;61.75;99529.81;4974211;28;110052;-79
2022/12/19 07:28:24;;;;;;;24.47;12.40;;;4.00;93.50;;;4.56;61.90;99529.03;4971507;28;124106;-78
2022/12/19 07:30:50;;;;;;;24.97;12.23;;;4.00;93.20;;;4.61;62.35;99528.28;4970180;28;123553;-78
2022/12/19 07:33:17;;;;;;;26.30;12.30;;;4.10;93.20;;;4.67;61.77;99531.91;4970583;28;109170;-78
2022/12/19 07:35:43;;;;;;;21.73;11.93;;;4.20;93.30;;;4.70;62.19;99529.50;4987308;28;108805;-78
2022/12/19 07:38:09;;;;;;;22.40;12.30;;;4.20;93.30;;;4.75;62.33;99534.19;4971211;28;124241;-78
2022/12/19 07:40:36;;;;;;;22.53;10.50;;;4.20;93.20;;;4.80;62.43;99545.19;4970553;28;123441;-78
2022/12/19 07:43:05;;;;;;;19.90;10.87;;;4.30;93.30;;;4.85;62.03;99542.50;4983103;28;110182;-79
2022/12/19 07:45:33;;;;;;;24.70;11.40;;;4.30;93.30;;;4.91;62.13;99551.59;4983405;28;109782;-85
2022/12/19 07:48:01;;;;;;;21.63;13.70;;;6.00;94.00;;;4.93;62.31;99543.97;4973943;28;123944;-78
2022/12/19 07:50:28;;;;;;;21.97;11.40;;;4.40;93.40;;;4.96;62.46;99546.19;4970014;28;123751;-78
2022/12/19 07:52:57;;;;;;;23.80;11.87;;;4.40;93.30;;;4.98;62.58;99541.28;4967979;28;109236;-77
2022/12/19 07:55:25;;;;;;;17.33;10.20;;;4.90;93.50;;;5.00;61.99;99544.59;4971109;28;109989;-77
2022/12/19 07:57:52;;;;;;;20.43;11.53;;;4.50;93.40;;;5.02;62.01;99539.69;4974611;28;123933;-78
2022/12/19 08:00:19;;;;;;;23.33;12.67;;;4.60;93.40;;;5.06;61.71;99538.09;4971167;28;124063;-77
2022/12/19 08:02:45;;;;;;;20.67;11.87;;;4.60;93.40;;;5.10;62.49;99536.47;4969808;28;109319;-78
2022/12/19 08:05:12;;;;;;;24.73;11.90;;;5.50;93.70;;;5.14;61.70;99543.09;4975122;28;110013;-77
2022/12/19 08:07:39;;;;;;;27.27;12.70;;;4.60;93.30;;;5.17;62.60;99533.53;4974613;28;124096;-77
2022/12/19 08:10:06;;;;;;;25.40;11.60;;;5.70;93.70;;;5.20;62.07;99547.53;4974759;28;124529;-78
2022/12/19 08:12:33;;;;;;;20.63;10.57;;;4.70;93.30;;;5.21;62.44;99532.78;4974116;28;108477;-77
2022/12/19 08:14:59;;;;;;;25.30;11.47;;;4.90;93.40;;;5.22;61.84;99550.03;4971004;28;109970;-77
2022/12/19 08:17:27;;;;;;;19.00;10.27;;;5.50;93.60;;;5.23;62.33;99546.19;4970140;28;124347;-76
2022/12/19 08:19:53;;;;;;;23.80;11.80;;;4.70;93.30;;;5.25;62.39;99550.34;4971990;28;123474;-77
2022/12/19 08:22:20;;;;;;;21.10;11.83;;;4.90;93.40;;;5.29;61.55;99551.47;4953893;28;108392;-76
2022/12/19 08:24:46;;;;;;;21.63;12.30;;;4.80;93.30;;;5.34;62.51;99549.84;4971001;28;109797;-77
2022/12/19 08:27:15;;;;;;;24.37;13.53;;;4.90;93.40;;;5.33;62.68;99557.25;4970461;28;124005;-77
2022/12/19 08:29:43;;;;;;;19.97;11.70;;;4.90;93.40;;;5.34;62.05;99550.69;4970012;28;122601;-76
2022/12/19 08:32:10;;;;;;;19.53;11.13;;;4.90;93.40;;;5.36;62.29;99558.66;4967991;28;109928;-76
2022/12/19 08:34:36;;;;;;;26.60;12.90;;;5.20;93.50;;;5.38;62.21;99551.84;4971183;28;109908;-76
2022/12/19 08:37:03;;;;;;;21.83;11.93;;;4.90;93.50;;;5.42;61.57;99554.88;4970100;28;124578;-77
2022/12/19 08:39:29;;;;;;;26.13;13.17;;;4.90;93.50;;;5.47;61.89;99541.22;4969635;28;124435;-78
2022/12/19 08:41:56;;;;;;;22.70;12.03;;;6.10;94.00;;;5.50;61.96;99547.00;4972889;28;109534;-77
2022/12/19 08:44:23;;;;;;;24.87;11.10;;;5.00;93.70;;;5.52;62.14;99541.25;4968828;28;110107;-77
2022/12/19 08:46:50;;;;;;;23.90;12.00;;;5.00;93.60;;;5.55;61.96;99546.22;4973988;28;123709;-78
2022/12/19 08:49:18;;;;;;;23.30;12.13;;;5.10;93.40;;;5.62;61.41;99546.84;4967346;28;125081;-79
2022/12/19 08:51:45;;;;;;;24.93;12.57;;;5.10;93.30;;;5.68;61.48;99536.75;5004179;28;109165;-78
2022/12/19 08:54:12;;;;;;;21.33;12.00;;;5.20;93.40;;;5.74;61.75;99541.97;4986507;28;109701;-77
2022/12/19 08:56:38;;;;;;;25.43;13.00;;;5.20;93.50;;;5.80;61.46;99545.59;4987795;28;123277;-77
2022/12/19 08:59:05;;;;;;;21.07;11.90;;;7.00;94.00;;;5.85;61.39;99533.84;4971333;28;123718;-79
2022/12/19 09:01:31;;;;;;;22.57;11.83;;;5.30;93.30;;;5.89;61.71;99541.28;4971240;28;109085;-77
2022/12/19 09:03:59;;;;;;;23.60;11.20;;;5.70;93.40;;;5.93;60.98;99541.56;4968206;28;110716;-78
2022/12/19 09:06:26;;;;;;;25.60;12.57;;;5.40;93.20;;;5.97;61.39;99538.06;4970865;28;123848;-77
2022/12/19 09:08:52;;;;;;;26.43;13.30;;;5.40;93.20;;;5.99;61.13;99526.81;4971199;28;124074;-78
2022/12/19 09:11:20;;;;;;;24.33;12.60;;;5.40;93.00;;;5.99;60.94;99524.09;4971955;28;109426;-80
2022/12/19 09:13:48;;;;;;;29.60;14.83;;;5.50;93.00;;;6.00;60.56;99523.00;4974247;28;110436;-80
2022/12/19 09:16:20;;;;;;;27.47;13.37;;;6.20;93.30;;;6.03;61.19;99532.63;4969261;28;124090;-80
2022/12/19 09:18:50;;;;;;;26.87;12.83;;;5.50;93.00;;;6.06;60.61;99521.94;4971508;28;123771;-80
2022/12/19 09:21:22;;;;;;;26.90;14.00;;;5.50;93.00;;;6.10;60.47;99517.59;4972962;28;109817;-79
2022/12/19 09:23:54;;;;;;;28.87;12.40;;;5.50;92.90;;;6.12;60.66;99531.03;4970181;28;109725;-79
2022/12/19 09:26:23;;;;;;;25.93;12.53;;;5.60;92.90;;;6.11;60.52;99530.22;4974842;28;124100;-79
2022/12/19 09:28:50;;;;;;;36.10;16.80;;;5.60;92.80;;;6.12;60.06;99534.59;4970337;28;123380;-80
2022/12/19 09:31:21;;;;;;;33.30;15.37;;;5.60;92.70;;;6.11;59.86;99524.72;4974853;28;109533;-78
2022/12/19 09:33:49;;;;;;;38.97;15.80;;;5.60;92.70;;;6.10;60.04;99533.22;4965267;28;110076;-78
2022/12/19 09:36:22;;;;;;;34.43;14.33;;;5.60;92.60;;;6.11;59.90;99524.72;4968609;28;123356;-79
2022/12/19 09:38:49;;;;;;;29.33;14.80;;;6.00;92.80;;;6.12;59.76;99531.03;4971522;28;123887;-78
2022/12/19 09:42:04;;;;;;;27.37;13.50;;;5.60;92.60;;;6.15;59.73;99530.50;4969394;28;109115;-79
2022/12/19 09:44:55;;;;;;;25.87;14.07;;;5.60;92.90;;;6.15;60.24;99525.84;4967481;28;110477;-78
2022/12/19 09:47:27;;;;;;;34.20;14.47;;;5.70;92.60;;;6.16;59.92;99533.00;4975786;28;123864;-77
2022/12/19 09:49:54;;;;;;;42.07;18.03;;;5.60;92.50;;;6.16;59.51;99534.91;4987913;28;123625;-79
2022/12/19 09:52:45;;;;;;;34.93;17.33;;;5.60;92.50;;;6.17;60.20;99523.66;4975104;28;108513;-79
2022/12/19 09:55:19;;;;;;;35.03;16.73;;;5.70;92.50;;;6.19;59.55;99521.47;5005336;28;109293;-79
2022/12/19 09:58:19;;;;;;;49.13;20.33;;;5.70;92.50;;;6.25;59.90;99516.03;4974866;28;123685;-78
2022/12/19 10:00:55;;;;;;;40.70;17.90;;;5.70;92.60;;;6.29;59.85;99514.41;4975764;28;123955;-79
2022/12/19 10:03:44;;;;;;;32.23;15.13;;;5.80;92.80;;;6.35;60.50;99514.16;4972560;28;109061;-79
2022/12/19 10:06:42;;;;;;;28.90;13.90;;;5.80;92.70;;;6.40;60.29;99510.63;5006235;28;110466;-78
2022/12/19 10:09:16;;;;;;;23.10;10.17;;;5.90;92.80;;;6.46;60.64;99498.56;4948986;28;124029;-79
2022/12/19 10:12:29;;;;;;;17.70;9.00;;;5.90;92.80;;;6.56;60.30;99506.84;4921000;28;123680;-79
2022/12/19 10:15:16;;;;;;;20.80;9.87;;;6.00;92.90;;;6.67;60.23;99498.66;4937058;28;109998;-78
2022/12/19 10:18:18;;;;;;;14.83;8.70;;;6.10;92.90;;;6.76;60.30;99491.53;4935102;28;110423;-78
2022/12/19 10:21:31;;;;;;;17.83;9.20;;;6.20;92.90;;;6.86;59.88;99497.03;4953702;28;123938;-77
2022/12/19 10:24:34;;;;;;;20.23;9.20;;;6.30;92.90;;;6.94;60.03;99488.28;4953057;28;122832;-77
2022/12/19 10:27:09;;;;;;;17.77;10.53;;;6.40;92.90;;;7.00;59.56;99481.69;4937621;28;109035;-79
2022/12/19 10:29:56;;;;;;;17.67;9.83;;;6.40;92.80;;;7.11;60.01;99488.03;4950933;28;109899;-77
2022/12/19 10:33:04;;;;;;;20.27;10.20;;;6.50;92.80;;;7.16;59.68;99481.72;4949499;28;123791;-78
2022/12/19 10:35:43;;;;;;;21.27;9.50;;;6.60;92.70;;;7.22;59.37;99486.09;4948249;28;124560;-79
2022/12/19 10:38:34;;;;;;;15.23;8.00;;;6.70;92.60;;;7.27;59.12;99484.19;4948864;28;109244;-79
2022/12/19 10:41:19;;;;;;;19.27;8.20;;;6.70;92.60;;;7.33;59.34;99459.44;4929678;28;108734;-80